createdAt,value
2023-01-08T00:00:47.180Z,78.30
2023-01-08T00:03:13.882Z,78.55
2023-01-08T00:05:40.403Z,78.80
2023-01-08T00:08:08.544Z,79.43
2023-01-08T00:10:35.692Z,78.97
2023-01-08T00:13:02.237Z,78.72
2023-01-08T00:15:30.177Z,78.62
2023-01-08T00:17:57.182Z,78.11
2023-01-08T00:20:23.868Z,78.09
2023-01-08T00:22:50.613Z,78.69
2023-01-08T00:25:17.340Z,78.72
2023-01-08T00:27:51.091Z,78.94
2023-01-08T00:30:17.577Z,78.98
2023-01-08T00:32:44.011Z,79.10
2023-01-08T00:35:10.546Z,79.41
2023-01-08T00:37:37.027Z,78.98
2023-01-08T00:40:03.616Z,79.39
2023-01-08T00:42:30.070Z,78.75
2023-01-08T00:44:56.578Z,78.48
2023-01-08T00:47:23.009Z,78.86
2023-01-08T00:49:49.447Z,78.43
2023-01-08T00:52:15.976Z,78.56
2023-01-08T00:54:42.416Z,78.61
2023-01-08T00:57:08.858Z,78.16
2023-01-08T00:59:35.511Z,78.56
2023-01-08T01:02:02.104Z,78.18
2023-01-08T01:04:28.798Z,78.10
2023-01-08T01:06:55.365Z,78.38
2023-01-08T01:09:21.821Z,78.34
2023-01-08T01:11:48.265Z,78.46
2023-01-08T01:14:14.771Z,79.04
2023-01-08T01:16:41.987Z,78.35
2023-01-08T01:19:08.529Z,78.45
2023-01-08T01:21:35.071Z,78.32
2023-01-08T01:24:02.687Z,78.73
2023-01-08T01:26:29.401Z,78.63
2023-01-08T01:28:56.204Z,78.82
2023-01-08T01:31:23.013Z,78.96
2023-01-08T01:33:49.848Z,79.16
2023-01-08T01:39:51.341Z,79.32
2023-01-08T01:42:36.566Z,79.15
2023-01-08T01:45:23.274Z,79.28
2023-01-08T01:47:55.176Z,79.17
2023-01-08T01:50:31.435Z,79.88
2023-01-08T01:53:00.948Z,79.88
2023-01-08T01:55:27.752Z,79.27
2023-01-08T01:58:14.474Z,79.74
2023-01-08T02:00:41.141Z,79.94
2023-01-08T02:03:07.661Z,79.48
2023-01-08T02:05:38.194Z,79.82
2023-01-08T02:08:10.092Z,80.25
2023-01-08T02:10:36.546Z,80.27
2023-01-08T02:13:08.390Z,79.49
2023-01-08T02:15:36.509Z,79.09
2023-01-08T02:18:05.761Z,79.08
2023-01-08T02:20:33.616Z,79.04
2023-01-08T02:23:15.522Z,79.17
2023-01-08T02:26:00.634Z,78.96
2023-01-08T02:28:27.185Z,78.65
2023-01-08T02:30:53.746Z,78.89
2023-01-08T02:33:20.268Z,79.19
2023-01-08T02:35:52.414Z,78.88
2023-01-08T02:38:18.855Z,79.13
2023-01-08T02:40:51.395Z,79.18
2023-01-08T02:43:18.350Z,78.58
2023-01-08T02:45:48.506Z,78.92
2023-01-08T02:48:24.215Z,78.93
2023-01-08T02:50:58.965Z,78.27
2023-01-08T02:53:26.549Z,78.61
2023-01-08T02:55:57.231Z,78.25
2023-01-08T02:58:23.896Z,78.25
2023-01-08T03:00:50.474Z,78.04
2023-01-08T03:03:24.144Z,77.86
2023-01-08T03:05:51.714Z,78.15
2023-01-08T03:08:18.210Z,77.85
2023-01-08T03:10:45.613Z,77.78
2023-01-08T03:13:13.394Z,77.46
2023-01-08T03:15:44.312Z,77.08
2023-01-08T03:18:11.419Z,76.89
2023-01-08T03:20:38.221Z,76.40
2023-01-08T03:23:06.313Z,76.61
2023-01-08T03:25:32.732Z,76.51
2023-01-08T03:28:00.768Z,76.41
2023-01-08T03:30:27.228Z,76.41
2023-01-08T03:32:53.895Z,76.44
2023-01-08T03:35:20.842Z,76.30
2023-01-08T03:37:49.438Z,75.85
2023-01-08T03:40:23.745Z,75.90
2023-01-08T03:42:50.283Z,75.92
2023-01-08T03:45:16.732Z,76.14
2023-01-08T03:47:43.287Z,76.71
2023-01-08T03:50:11.448Z,76.55
2023-01-08T03:52:37.921Z,76.42
2023-01-08T03:55:04.634Z,76.73
2023-01-08T03:57:31.109Z,76.89
2023-01-08T03:59:57.624Z,76.66
2023-01-08T04:02:24.196Z,76.17
2023-01-08T04:04:50.797Z,76.51
2023-01-08T04:07:17.260Z,76.11
2023-01-08T04:09:43.717Z,75.78
2023-01-08T04:12:10.168Z,76.32
2023-01-08T04:14:36.623Z,76.15
2023-01-08T04:17:03.144Z,75.99
2023-01-08T04:19:29.605Z,76.33
2023-01-08T04:21:56.052Z,76.33
2023-01-08T04:24:22.603Z,76.55
2023-01-08T04:26:49.064Z,76.40
2023-01-08T04:29:15.534Z,76.50
2023-01-08T04:31:41.978Z,75.86
2023-01-08T04:34:08.428Z,75.71
2023-01-08T04:36:34.891Z,75.92
2023-01-08T04:39:01.369Z,75.69
2023-01-08T04:41:27.844Z,75.88
2023-01-08T04:43:54.324Z,75.66
2023-01-08T04:46:20.883Z,75.65
2023-01-08T04:48:47.470Z,75.73
2023-01-08T04:51:14.030Z,75.71
2023-01-08T04:53:41.519Z,75.33
2023-01-08T04:56:08.765Z,75.78
2023-01-08T04:58:35.476Z,75.53
2023-01-08T05:01:02.100Z,76.35
2023-01-08T05:03:28.622Z,76.14
2023-01-08T05:05:55.170Z,75.60
2023-01-08T05:08:21.707Z,75.71
2023-01-08T05:10:48.229Z,75.34
2023-01-08T05:13:14.683Z,75.55
2023-01-08T05:15:41.216Z,75.58
2023-01-08T05:18:07.742Z,76.44
2023-01-08T05:20:34.263Z,76.05
2023-01-08T05:23:01.309Z,76.64
2023-01-08T05:25:27.785Z,76.10
2023-01-08T05:27:54.246Z,76.96
2023-01-08T05:30:20.785Z,76.49
2023-01-08T05:32:47.292Z,76.54
2023-01-08T05:35:13.773Z,76.85
2023-01-08T05:37:40.880Z,76.86
2023-01-08T05:40:07.603Z,77.06
2023-01-08T05:42:34.575Z,76.78
2023-01-08T05:45:01.347Z,77.37
2023-01-08T05:47:31.276Z,77.15
2023-01-08T05:49:57.816Z,77.29
2023-01-08T05:52:24.278Z,76.97
2023-01-08T05:54:50.743Z,77.00
2023-01-08T05:57:17.279Z,77.53
2023-01-08T05:59:43.741Z,77.71
2023-01-08T06:02:10.212Z,77.73
2023-01-08T06:04:36.786Z,77.47
2023-01-08T06:07:03.275Z,77.62
2023-01-08T06:09:29.747Z,77.22
2023-01-08T06:11:58.179Z,77.97
2023-01-08T06:14:24.795Z,77.86
2023-01-08T06:16:51.257Z,77.85
2023-01-08T06:19:19.096Z,77.93
2023-01-08T06:21:45.686Z,77.96
2023-01-08T06:24:12.191Z,77.42
2023-01-08T06:26:38.692Z,77.73
2023-01-08T06:29:05.193Z,77.95
2023-01-08T06:31:31.756Z,77.96
2023-01-08T06:33:58.262Z,77.89
2023-01-08T06:36:24.810Z,77.32
2023-01-08T06:38:51.318Z,77.75
2023-01-08T06:41:17.940Z,77.55
2023-01-08T06:43:44.422Z,77.32
2023-01-08T06:46:11.026Z,76.92
2023-01-08T06:48:37.644Z,76.95
2023-01-08T06:51:04.227Z,76.53
2023-01-08T06:53:30.740Z,76.76
2023-01-08T06:55:58.673Z,76.68
2023-01-08T06:58:28.391Z,76.53
2023-01-08T07:00:54.913Z,77.08
2023-01-08T07:03:21.435Z,76.72
2023-01-08T07:05:47.960Z,76.76
2023-01-08T07:08:14.840Z,77.15
2023-01-08T07:10:41.610Z,76.52
2023-01-08T07:13:09.203Z,76.74
2023-01-08T07:15:36.272Z,76.96
2023-01-08T07:18:06.398Z,76.68
2023-01-08T07:20:33.381Z,76.44
2023-01-08T07:23:06.647Z,75.97
2023-01-08T07:25:33.229Z,75.71
2023-01-08T07:28:00.787Z,74.92
2023-01-08T07:30:30.125Z,75.68
2023-01-08T07:33:00.644Z,75.66
2023-01-08T07:35:27.382Z,75.44
2023-01-08T07:37:53.918Z,74.60
2023-01-08T07:40:20.528Z,74.55
2023-01-08T07:42:47.046Z,74.49
2023-01-08T07:45:13.542Z,74.68
2023-01-08T07:47:40.063Z,74.36
2023-01-08T07:50:06.720Z,74.30
2023-01-08T07:52:33.173Z,74.70
2023-01-08T07:54:59.659Z,74.64
2023-01-08T07:57:26.159Z,74.25
2023-01-08T07:59:52.664Z,74.21
2023-01-08T08:02:19.337Z,74.46
2023-01-08T08:04:45.866Z,74.15
2023-01-08T08:07:12.363Z,73.94
2023-01-08T08:09:38.859Z,73.93
2023-01-08T08:12:05.431Z,73.78
2023-01-08T08:14:31.905Z,73.81
2023-01-08T08:16:58.411Z,73.65
2023-01-08T08:19:24.898Z,73.43
2023-01-08T08:21:51.358Z,73.34
2023-01-08T08:24:17.839Z,73.58
2023-01-08T08:26:44.355Z,73.49
2023-01-08T08:29:10.892Z,72.45
2023-01-08T08:31:37.443Z,72.41
2023-01-08T08:34:03.918Z,72.53
2023-01-08T08:36:30.485Z,72.89
2023-01-08T08:38:57.047Z,72.05
2023-01-08T08:41:23.479Z,71.54
2023-01-08T08:43:51.410Z,71.40
2023-01-08T08:46:18.029Z,70.64
2023-01-08T08:48:45.282Z,67.77
2023-01-08T08:51:11.916Z,68.06
2023-01-08T08:53:38.405Z,65.69
2023-01-08T08:56:05.030Z,65.87
2023-01-08T08:58:31.506Z,65.19
2023-01-08T09:01:01.092Z,62.90
2023-01-08T09:03:27.631Z,62.39
2023-01-08T09:05:54.167Z,60.85
2023-01-08T09:08:20.678Z,58.84
2023-01-08T09:10:47.143Z,58.67
2023-01-08T09:13:13.647Z,58.05
2023-01-08T09:15:40.169Z,54.90
2023-01-08T09:18:06.667Z,54.29
2023-01-08T09:20:33.133Z,53.16
2023-01-08T09:22:59.884Z,53.42
2023-01-08T09:25:26.422Z,53.39
2023-01-08T09:28:02.828Z,52.52
2023-01-08T09:30:29.370Z,53.13
2023-01-08T09:33:03.097Z,53.07
2023-01-08T09:35:29.922Z,53.58
2023-01-08T09:37:56.444Z,53.96
2023-01-08T09:40:23.902Z,54.82
2023-01-08T09:43:00.382Z,54.96
2023-01-08T09:45:30.227Z,56.13
2023-01-08T09:47:57.243Z,56.44
2023-01-08T09:50:23.811Z,56.68
2023-01-08T09:52:50.339Z,56.64
2023-01-08T09:55:16.832Z,57.72
2023-01-08T09:57:43.901Z,58.07
2023-01-08T10:00:14.339Z,57.90
2023-01-08T10:02:41.125Z,58.44
2023-01-08T10:05:14.849Z,58.95
2023-01-08T10:07:41.355Z,60.45
2023-01-08T10:10:28.178Z,60.46
2023-01-08T10:12:54.685Z,60.20
2023-01-08T10:15:21.596Z,60.25
2023-01-08T10:17:57.272Z,60.64
2023-01-08T10:20:24.387Z,60.85
2023-01-08T10:22:54.179Z,60.36
2023-01-08T10:25:21.547Z,60.78
2023-01-08T10:27:52.070Z,61.05
2023-01-08T10:30:19.398Z,60.17
2023-01-08T10:32:52.007Z,60.69
2023-01-08T10:35:20.305Z,60.49
2023-01-08T10:37:47.810Z,60.52
2023-01-08T10:40:20.434Z,61.46
2023-01-08T10:42:46.909Z,62.15
2023-01-08T10:45:26.243Z,61.17
2023-01-08T10:47:56.785Z,62.81
2023-01-08T10:50:24.477Z,61.65
2023-01-08T10:52:58.337Z,61.86
2023-01-08T10:55:26.033Z,59.94
2023-01-08T10:57:53.555Z,61.22
2023-01-08T11:00:27.248Z,60.62
2023-01-08T11:02:53.799Z,61.01
2023-01-08T11:05:20.569Z,60.51
2023-01-08T11:07:53.531Z,60.15
2023-01-08T11:10:23.856Z,60.25
2023-01-08T11:12:54.387Z,61.09
2023-01-08T11:15:20.901Z,60.90
2023-01-08T11:17:47.404Z,61.09
2023-01-08T11:20:24.104Z,59.92
2023-01-08T11:22:50.828Z,59.54
2023-01-08T11:25:23.229Z,59.91
2023-01-08T11:27:49.704Z,60.53
2023-01-08T11:30:23.478Z,59.86
2023-01-08T11:33:02.145Z,60.41
2023-01-08T11:35:30.062Z,60.21
2023-01-08T11:38:00.246Z,59.68
2023-01-08T11:40:26.767Z,60.52
2023-01-08T11:43:03.650Z,59.97
2023-01-08T11:45:44.074Z,60.48
2023-01-08T11:48:16.584Z,62.01
2023-01-08T11:51:02.048Z,61.42
2023-01-08T11:53:28.484Z,61.34
2023-01-08T11:55:58.677Z,61.76
2023-01-08T11:58:31.393Z,61.16
2023-01-08T12:00:57.844Z,62.03
2023-01-08T12:03:24.356Z,61.92
2023-01-08T12:06:01.549Z,61.72
2023-01-08T12:08:28.043Z,62.17
2023-01-08T12:11:00.127Z,62.26
2023-01-08T12:13:38.594Z,61.60
2023-01-08T12:16:17.405Z,61.72
2023-01-08T12:18:47.126Z,61.57
2023-01-08T12:21:14.161Z,62.57
2023-01-08T12:23:52.892Z,62.24
2023-01-08T12:26:19.416Z,61.96
2023-01-08T12:28:53.117Z,61.46
2023-01-08T12:31:22.803Z,61.82
2023-01-08T12:33:57.214Z,61.93
2023-01-08T12:36:44.441Z,62.05
2023-01-08T12:39:12.727Z,62.43
2023-01-08T12:41:39.464Z,62.23
2023-01-08T12:44:06.537Z,62.08
2023-01-08T12:46:33.885Z,61.78
2023-01-08T12:49:00.396Z,62.23
2023-01-08T12:51:29.128Z,61.97
2023-01-08T12:54:07.819Z,61.72
2023-01-08T12:56:34.284Z,61.34
2023-01-08T12:59:12.228Z,61.41
2023-01-08T13:01:42.575Z,61.25
2023-01-08T13:04:09.617Z,61.07
2023-01-08T13:06:36.152Z,62.09
2023-01-08T13:09:02.836Z,61.45
2023-01-08T13:11:30.723Z,62.58
2023-01-08T13:14:06.937Z,62.60
2023-01-08T13:16:39.079Z,62.23
2023-01-08T13:19:05.685Z,62.51
2023-01-08T13:21:36.252Z,62.41
2023-01-08T13:24:23.028Z,62.56
2023-01-08T13:26:49.527Z,63.43
2023-01-08T13:29:26.819Z,62.85
2023-01-08T13:31:53.366Z,63.51
2023-01-08T13:34:35.358Z,62.65
2023-01-08T13:37:01.918Z,63.36
2023-01-08T13:39:32.579Z,62.45
2023-01-08T13:41:59.073Z,62.68
2023-01-08T13:44:29.626Z,62.96
2023-01-08T13:46:57.044Z,62.18
2023-01-08T13:49:36.852Z,62.80
2023-01-08T13:52:03.414Z,62.78
2023-01-08T13:54:35.469Z,62.56
2023-01-08T13:57:04.162Z,62.39
2023-01-08T13:59:33.804Z,62.68
2023-01-08T14:02:01.411Z,63.00
2023-01-08T14:04:28.071Z,61.95
2023-01-08T14:07:04.859Z,62.43
2023-01-08T14:09:33.218Z,62.55
2023-01-08T14:12:01.042Z,62.75
2023-01-08T14:14:27.476Z,62.28
2023-01-08T14:16:54.107Z,62.78
2023-01-08T14:19:21.268Z,63.00
2023-01-08T14:21:51.222Z,62.87
2023-01-08T14:24:17.991Z,63.79
2023-01-08T14:26:46.940Z,63.35
2023-01-08T14:29:17.116Z,62.86
2023-01-08T14:31:47.228Z,63.16
2023-01-08T14:34:13.737Z,62.33
2023-01-08T14:36:40.962Z,63.02
2023-01-08T14:39:21.872Z,63.50
2023-01-08T14:42:09.575Z,63.40
2023-01-08T14:44:40.447Z,62.93
2023-01-08T14:47:13.941Z,63.22
2023-01-08T14:49:44.825Z,63.17
2023-01-08T14:52:12.142Z,63.81
2023-01-08T14:54:38.567Z,64.10
2023-01-08T14:57:05.035Z,64.56
2023-01-08T14:59:33.330Z,64.13
2023-01-08T15:02:40.401Z,64.55
2023-01-08T15:05:14.879Z,64.36
2023-01-08T15:07:42.078Z,64.48
2023-01-08T15:10:31.913Z,64.65
2023-01-08T15:13:00.881Z,65.17
2023-01-08T15:15:27.353Z,65.20
2023-01-08T15:17:54.021Z,65.24
2023-01-08T15:20:20.780Z,64.87
2023-01-08T15:22:47.204Z,64.73
2023-01-08T15:25:17.172Z,64.53
2023-01-08T15:27:49.154Z,64.68
2023-01-08T15:30:26.121Z,65.01
2023-01-08T15:32:52.784Z,65.02
2023-01-08T15:35:19.268Z,65.18
2023-01-08T15:37:45.776Z,65.25
2023-01-08T15:40:12.404Z,65.52
2023-01-08T15:43:17.392Z,65.79
2023-01-08T15:45:44.824Z,65.96
2023-01-08T15:48:11.279Z,66.14
2023-01-08T15:50:38.945Z,66.05
2023-01-08T15:53:25.677Z,66.28
2023-01-08T15:55:52.194Z,66.43
2023-01-08T15:58:18.836Z,66.40
2023-01-08T16:00:45.630Z,66.57
2023-01-08T16:03:12.600Z,66.79
2023-01-08T16:05:39.127Z,66.95
2023-01-08T16:08:05.809Z,66.88
2023-01-08T16:10:32.559Z,66.97
2023-01-08T16:12:59.970Z,66.96
2023-01-08T16:15:28.021Z,66.83
2023-01-08T16:17:54.614Z,66.68
2023-01-08T16:20:21.060Z,66.98
2023-01-08T16:22:47.571Z,66.71
2023-01-08T16:25:14.494Z,67.00
2023-01-08T16:27:41.202Z,67.10
2023-01-08T16:30:08.228Z,67.39
2023-01-08T16:32:34.775Z,67.54
2023-01-08T16:35:01.208Z,67.24
2023-01-08T16:37:27.864Z,67.02
2023-01-08T16:39:54.528Z,67.07
2023-01-08T16:42:21.012Z,67.05
2023-01-08T16:44:47.511Z,67.30
2023-01-08T16:47:14.011Z,66.75
2023-01-08T16:49:41.760Z,67.21
2023-01-08T16:52:09.426Z,67.02
2023-01-08T16:54:36.058Z,67.26
2023-01-08T16:57:02.549Z,67.65
2023-01-08T16:59:29.022Z,67.71
2023-01-08T17:01:55.584Z,67.16
2023-01-08T17:04:22.069Z,67.28
2023-01-08T17:06:48.531Z,67.22
2023-01-08T17:09:15.094Z,67.39
2023-01-08T17:11:41.653Z,67.36
2023-01-08T17:14:08.449Z,67.48
2023-01-08T17:16:35.112Z,67.95
2023-01-08T17:19:01.744Z,67.79
2023-01-08T17:21:28.179Z,67.80
2023-01-08T17:23:54.789Z,67.69
2023-01-08T17:26:21.377Z,67.81
2023-01-08T17:28:48.026Z,67.59
2023-01-08T17:31:15.492Z,67.68
2023-01-08T17:33:42.114Z,67.52
2023-01-08T17:36:15.616Z,67.74
2023-01-08T17:38:43.288Z,68.07
2023-01-08T17:41:10.168Z,67.98
2023-01-08T17:43:36.880Z,68.16
2023-01-08T17:46:06.943Z,68.03
2023-01-08T17:48:33.670Z,68.35
2023-01-08T17:51:41.366Z,68.42
2023-01-08T17:54:17.302Z,68.22
2023-01-08T17:56:43.785Z,68.34
2023-01-08T17:59:13.937Z,68.25
2023-01-08T18:01:40.391Z,68.26
2023-01-08T18:04:06.984Z,68.07
2023-01-08T18:06:33.596Z,68.21
2023-01-08T18:09:00.309Z,68.24
2023-01-08T18:11:27.144Z,68.38
2023-01-08T18:14:00.291Z,68.30
2023-01-08T18:16:26.915Z,68.19
2023-01-08T18:18:53.501Z,68.24
2023-01-08T18:21:20.006Z,68.51
2023-01-08T18:23:49.542Z,68.62
2023-01-08T18:26:16.371Z,68.64
2023-01-08T18:28:42.969Z,69.01
2023-01-08T18:31:10.187Z,68.75
2023-01-08T18:33:36.933Z,68.89
2023-01-08T18:36:06.351Z,68.88
2023-01-08T18:38:33.117Z,69.08
2023-01-08T18:40:59.681Z,69.17
2023-01-08T18:43:28.525Z,69.04
2023-01-08T18:45:58.798Z,68.86
2023-01-08T18:48:25.261Z,69.19
2023-01-08T18:50:51.727Z,69.43
2023-01-08T18:53:20.009Z,69.26
2023-01-08T18:55:46.496Z,69.47
2023-01-08T18:58:13.024Z,69.52
2023-01-08T19:00:39.557Z,69.89
2023-01-08T19:03:08.998Z,69.86
2023-01-08T19:05:41.992Z,70.48
2023-01-08T19:08:08.567Z,70.42
2023-01-08T19:10:35.687Z,70.40
2023-01-08T19:13:02.217Z,70.24
2023-01-08T19:15:28.857Z,70.34
2023-01-08T19:17:55.347Z,70.66
2023-01-08T19:20:21.830Z,70.71
2023-01-08T19:22:48.371Z,70.70
2023-01-08T19:25:15.882Z,70.81
2023-01-08T19:27:42.480Z,71.17
2023-01-08T19:30:09.461Z,70.96
2023-01-08T19:32:35.971Z,70.96
2023-01-08T19:35:02.789Z,71.01
2023-01-08T19:37:29.364Z,71.21
2023-01-08T19:40:00.458Z,71.25
2023-01-08T19:42:48.881Z,71.29
2023-01-08T19:45:15.406Z,71.07
2023-01-08T19:47:42.008Z,71.38
2023-01-08T19:50:10.264Z,71.37
2023-01-08T19:52:36.799Z,71.25
2023-01-08T19:55:03.644Z,71.59
2023-01-08T19:57:30.130Z,71.78
2023-01-08T19:59:56.603Z,71.75
2023-01-08T20:02:23.191Z,72.14
2023-01-08T20:04:49.769Z,71.95
2023-01-08T20:07:16.279Z,71.89
2023-01-08T20:09:42.813Z,71.74
2023-01-08T20:12:09.638Z,72.24
2023-01-08T20:14:36.196Z,71.85
2023-01-08T20:17:02.680Z,71.89
2023-01-08T20:19:29.185Z,72.19
2023-01-08T20:21:55.758Z,72.29
2023-01-08T20:24:22.229Z,72.32
2023-01-08T20:26:48.773Z,72.62
2023-01-08T20:29:15.485Z,72.78
2023-01-08T20:31:42.218Z,72.97
2023-01-08T20:34:10.481Z,72.83
2023-01-08T20:36:36.997Z,72.96
2023-01-08T20:39:06.751Z,72.95
2023-01-08T20:41:33.312Z,72.87
2023-01-08T20:44:01.380Z,73.29
2023-01-08T20:46:28.671Z,73.23
2023-01-08T20:48:55.909Z,73.12
2023-01-08T20:51:22.493Z,73.34
2023-01-08T20:54:01.681Z,73.43
2023-01-08T20:56:28.206Z,73.61
2023-01-08T20:58:54.783Z,73.72
2023-01-08T21:01:21.953Z,73.91
2023-01-08T21:03:49.401Z,74.02
2023-01-08T21:06:16.694Z,73.94
2023-01-08T21:08:43.783Z,74.28
2023-01-08T21:11:10.546Z,74.01
2023-01-08T21:13:37.920Z,73.98
2023-01-08T21:16:06.399Z,74.06
2023-01-08T21:18:33.126Z,73.90
2023-01-08T21:21:00.673Z,73.63
2023-01-08T21:23:28.263Z,74.08
2023-01-08T21:25:58.126Z,74.14
2023-01-08T21:28:25.036Z,74.07
2023-01-08T21:30:51.598Z,74.07
2023-01-08T21:33:18.065Z,74.37
2023-01-08T21:35:44.553Z,74.33
2023-01-08T21:38:11.554Z,74.55
2023-01-08T21:40:38.093Z,74.70
2023-01-08T21:43:23.542Z,74.43
2023-01-08T21:45:50.876Z,74.27
2023-01-08T21:48:17.355Z,74.29
2023-01-08T21:50:43.875Z,74.57
2023-01-08T21:53:29.051Z,74.05
2023-01-08T21:55:55.562Z,73.94
2023-01-08T21:58:22.139Z,74.12
2023-01-08T22:00:48.666Z,71.56
2023-01-08T22:03:15.152Z,72.10
2023-01-08T22:05:41.640Z,71.07
2023-01-08T22:08:09.476Z,69.82
2023-01-08T22:10:36.044Z,69.42
2023-01-08T22:13:02.526Z,69.68
2023-01-08T22:15:28.980Z,69.75
2023-01-08T22:17:55.519Z,70.34
2023-01-08T22:20:22.027Z,69.87
2023-01-08T22:22:49.165Z,69.98
2023-01-08T22:25:15.945Z,70.02
2023-01-08T22:27:42.414Z,70.00
2023-01-08T22:30:09.970Z,70.54
2023-01-08T22:32:36.471Z,70.70
2023-01-08T22:35:03.050Z,70.40
2023-01-08T22:37:29.510Z,70.78
2023-01-08T22:39:56.108Z,71.40
2023-01-08T22:42:23.275Z,70.97
2023-01-08T22:45:00.700Z,71.25
2023-01-08T22:47:27.728Z,71.63
2023-01-08T22:49:54.247Z,71.85
2023-01-08T22:52:20.713Z,71.41
2023-01-08T22:54:47.254Z,71.99
2023-01-08T22:57:13.828Z,72.12
2023-01-08T22:59:40.392Z,71.95
2023-01-08T23:02:06.879Z,73.04
2023-01-08T23:04:33.420Z,73.31
2023-01-08T23:06:59.906Z,73.12
2023-01-08T23:09:26.348Z,73.39
2023-01-08T23:11:53.014Z,73.06
2023-01-08T23:14:19.709Z,73.44
2023-01-08T23:16:46.271Z,73.87
2023-01-08T23:19:12.824Z,73.89
2023-01-08T23:21:39.386Z,73.91
2023-01-08T23:24:07.129Z,74.67
2023-01-08T23:26:33.600Z,74.53
2023-01-08T23:29:00.722Z,74.89
2023-01-08T23:31:27.743Z,74.52
2023-01-08T23:33:54.372Z,74.50
2023-01-08T23:36:21.484Z,74.24
2023-01-08T23:38:49.661Z,75.00
2023-01-08T23:41:19.530Z,74.36
2023-01-08T23:43:46.330Z,75.08
2023-01-08T23:46:13.592Z,74.93
2023-01-08T23:48:40.158Z,74.61
2023-01-08T23:51:06.962Z,74.85
2023-01-08T23:53:33.451Z,74.92
2023-01-08T23:55:59.939Z,75.51
2023-01-08T23:58:26.431Z,74.78
